Terminal Aerodrome Forecast
Issued by NWS Midland/Odessa, TX

Home | Current Version | Previous Version | Text Only | Print | Product List | Glossary On
Versions: 1 2 3 4 5 6 7 8 9 10 11 12 13 14 15 16
000
FTUS44 KMAF 102300
TAFMAF
TAF
KMAF 102331Z 1100/1124 16018G25KT P6SM FEW250
     FM110200 16012KT P6SM FEW200
     FM111200 16012KT P6SM SCT030 SCT250
     FM111600 16014G21KT P6SM BKN040=

USA.gov is the U.S. government's official web portal to all federal, state and local government web resources and services.